createdAt,value
2018-07-17T00:01:09.135Z,82.90
2018-07-17T00:03:38.375Z,82.20
2018-07-17T00:06:07.661Z,82.10
2018-07-17T00:08:36.895Z,82.10
2018-07-17T00:11:06.159Z,82.20
2018-07-17T00:13:35.411Z,82.20
2018-07-17T00:16:04.716Z,82.20
2018-07-17T00:18:33.964Z,82.40
2018-07-17T00:21:03.155Z,82.50
2018-07-17T00:23:32.375Z,82.60
2018-07-17T00:26:01.520Z,82.80
2018-07-17T00:28:30.759Z,82.80
2018-07-17T00:31:00.000Z,83.00
2018-07-17T00:33:29.291Z,83.30
2018-07-17T00:35:58.547Z,84.40
2018-07-17T00:38:27.847Z,83.90
2018-07-17T00:40:57.067Z,84.20
2018-07-17T00:43:26.251Z,84.30
2018-07-17T00:45:55.455Z,84.30
2018-07-17T00:48:24.721Z,84.20
2018-07-17T00:50:54.196Z,84.20
2018-07-17T00:53:23.471Z,84.20
2018-07-17T00:55:52.589Z,84.20
2018-07-17T00:58:21.897Z,84.20
2018-07-17T01:00:50.163Z,84.10
2018-07-17T01:03:24.344Z,84.30
2018-07-17T01:05:58.552Z,84.70
2018-07-17T01:08:32.920Z,84.80
2018-07-17T01:11:07.211Z,85.00
2018-07-17T01:13:41.472Z,85.30
2018-07-17T01:16:10.800Z,85.30
2018-07-17T01:18:39.952Z,85.50
2018-07-17T01:21:09.184Z,85.50
2018-07-17T01:23:38.407Z,85.60
2018-07-17T01:26:07.664Z,85.50
2018-07-17T01:28:36.847Z,86.30
2018-07-17T01:31:06.094Z,85.50
2018-07-17T01:33:35.300Z,85.60
2018-07-17T01:36:04.536Z,85.80
2018-07-17T01:38:33.780Z,85.90
2018-07-17T01:41:02.901Z,85.80
2018-07-17T01:43:32.158Z,85.90
2018-07-17T01:46:01.424Z,86.00
2018-07-17T01:48:30.658Z,86.10
2018-07-17T01:50:59.923Z,86.20
2018-07-17T01:53:29.512Z,86.20
2018-07-17T01:55:58.744Z,86.10
2018-07-17T01:58:27.928Z,86.10
2018-07-17T02:00:57.114Z,86.00
2018-07-17T02:03:26.318Z,86.00
2018-07-17T02:05:55.532Z,85.90
2018-07-17T02:08:24.765Z,86.30
2018-07-17T02:10:54.003Z,85.90
2018-07-17T02:13:23.158Z,86.00
2018-07-17T02:15:52.402Z,86.00
2018-07-17T02:18:21.558Z,86.20
2018-07-17T02:20:50.739Z,86.40
2018-07-17T02:23:19.871Z,86.50
2018-07-17T02:25:49.050Z,86.60
2018-07-17T02:28:18.214Z,86.90
2018-07-17T02:30:47.435Z,86.90
2018-07-17T02:33:16.620Z,87.00
2018-07-17T02:35:45.939Z,87.40
2018-07-17T02:38:15.191Z,86.80
2018-07-17T02:40:44.308Z,86.90
2018-07-17T02:43:13.449Z,86.90
2018-07-17T02:45:42.672Z,87.00
2018-07-17T02:48:12.036Z,87.10
2018-07-17T02:50:41.264Z,87.20
2018-07-17T02:53:10.471Z,87.20
2018-07-17T02:55:39.624Z,87.40
2018-07-17T02:58:08.880Z,87.40
2018-07-17T03:00:38.232Z,87.60
2018-07-17T03:03:07.603Z,87.80
2018-07-17T03:05:36.772Z,87.80
2018-07-17T03:08:05.987Z,87.80
2018-07-17T03:10:35.205Z,87.70
2018-07-17T03:13:04.418Z,87.90
2018-07-17T03:15:33.602Z,88.00
2018-07-17T03:18:03.588Z,88.10
2018-07-17T03:20:32.802Z,88.10
2018-07-17T03:25:30.740Z,88.20
2018-07-17T03:28:00.009Z,88.30
2018-07-17T03:30:29.187Z,88.40
2018-07-17T03:32:58.946Z,89.40
2018-07-17T03:35:28.454Z,88.70
2018-07-17T03:37:57.768Z,89.00
2018-07-17T03:40:30.959Z,88.70
2018-07-17T03:43:00.156Z,88.80
2018-07-17T03:45:29.301Z,88.90
2018-07-17T03:47:58.523Z,89.10
2018-07-17T03:50:27.717Z,89.20
2018-07-17T03:52:56.952Z,89.30
2018-07-17T03:55:26.164Z,89.30
2018-07-17T03:57:55.474Z,89.20
2018-07-17T04:02:54.462Z,89.20
2018-07-17T04:05:23.683Z,89.00
2018-07-17T04:07:52.936Z,88.90
2018-07-17T04:10:22.492Z,89.00
2018-07-17T04:12:51.734Z,88.90
2018-07-17T04:15:20.951Z,88.90
2018-07-17T04:17:50.188Z,88.90
2018-07-17T04:20:19.767Z,89.20
2018-07-17T04:22:48.936Z,89.00
2018-07-17T04:25:18.127Z,89.10
2018-07-17T04:27:47.309Z,89.10
2018-07-17T04:30:16.627Z,89.00
2018-07-17T04:32:45.995Z,88.90
2018-07-17T04:35:15.222Z,89.00
2018-07-17T04:37:45.635Z,89.00
2018-07-17T04:40:14.803Z,89.00
2018-07-17T04:42:44.079Z,89.20
2018-07-17T04:45:13.223Z,89.40
2018-07-17T04:47:42.477Z,89.60
2018-07-17T04:50:11.691Z,89.60
2018-07-17T04:52:40.912Z,89.80
2018-07-17T04:55:10.141Z,89.80
2018-07-17T04:57:39.411Z,89.80
2018-07-17T05:00:09.862Z,89.80
2018-07-17T05:02:40.499Z,89.90
2018-07-17T05:07:38.427Z,90.00
2018-07-17T05:10:08.307Z,90.00
2018-07-17T05:12:37.554Z,90.10
2018-07-17T05:15:06.823Z,90.60
2018-07-17T05:17:36.022Z,90.20
2018-07-17T05:20:05.412Z,90.30
2018-07-17T05:22:34.594Z,90.30
2018-07-17T05:27:32.468Z,90.40
2018-07-17T05:30:02.085Z,90.40
2018-07-17T05:32:31.280Z,90.40
2018-07-17T05:35:00.530Z,90.40
2018-07-17T05:39:58.743Z,90.30
2018-07-17T05:42:27.928Z,90.20
2018-07-17T05:44:57.018Z,90.10
2018-07-17T05:47:26.195Z,90.00
2018-07-17T05:49:55.450Z,89.80
2018-07-17T05:52:25.742Z,89.70
2018-07-17T05:54:54.996Z,89.50
2018-07-17T05:57:24.238Z,89.40
2018-07-17T05:59:54.103Z,89.30
2018-07-17T06:02:23.355Z,89.00
2018-07-17T06:04:52.600Z,88.40
2018-07-17T06:07:21.818Z,88.00
2018-07-17T06:09:51.126Z,87.50
2018-07-17T06:12:20.402Z,87.00
2018-07-17T06:14:49.692Z,86.40
2018-07-17T06:17:18.823Z,85.70
2018-07-17T06:19:48.057Z,84.80
2018-07-17T06:22:17.303Z,84.40
2018-07-17T06:24:46.595Z,83.80
2018-07-17T06:27:15.848Z,83.00
2018-07-17T06:29:45.135Z,82.40
2018-07-17T06:32:14.332Z,81.90
2018-07-17T06:34:44.445Z,81.40
2018-07-17T06:37:14.214Z,81.20
2018-07-17T06:39:46.159Z,80.70
2018-07-17T06:42:15.462Z,80.40
2018-07-17T06:44:44.789Z,80.70
2018-07-17T06:47:16.189Z,79.60
2018-07-17T06:49:45.783Z,79.90
2018-07-17T06:52:15.064Z,78.90
2018-07-17T06:54:44.219Z,78.60
2018-07-17T06:57:13.413Z,78.40
2018-07-17T06:59:42.770Z,77.90
2018-07-17T07:02:12.131Z,77.50
2018-07-17T07:04:43.576Z,77.10
2018-07-17T07:07:12.875Z,77.00
2018-07-17T07:09:42.124Z,76.60
2018-07-17T07:12:13.395Z,76.50
2018-07-17T07:14:43.038Z,76.60
2018-07-17T07:17:12.253Z,76.30
2018-07-17T07:19:41.921Z,75.90
2018-07-17T07:22:11.203Z,75.50
2018-07-17T07:24:40.450Z,75.20
2018-07-17T07:27:09.787Z,75.00
2018-07-17T07:29:39.043Z,74.60
2018-07-17T07:32:08.975Z,74.00
2018-07-17T07:34:38.360Z,73.50
2018-07-17T07:37:10.430Z,72.80
2018-07-17T07:39:39.813Z,72.20
2018-07-17T07:42:09.574Z,71.70
2018-07-17T07:44:38.908Z,70.90
2018-07-17T07:47:13.180Z,70.10
2018-07-17T07:49:42.474Z,69.50
2018-07-17T07:52:11.724Z,68.80
2018-07-17T07:57:10.068Z,67.70
2018-07-17T07:59:39.493Z,67.40
2018-07-17T08:02:08.879Z,67.50
2018-07-17T08:04:38.267Z,66.90
2018-07-17T08:07:07.591Z,66.50
2018-07-17T08:09:37.281Z,66.30
2018-07-17T08:12:06.649Z,66.30
2018-07-17T08:14:36.118Z,65.80
2018-07-17T08:17:06.165Z,64.70
2018-07-17T08:19:37.871Z,63.50
2018-07-17T08:22:07.333Z,62.70
2018-07-17T08:24:36.527Z,61.90
2018-07-17T08:27:06.337Z,61.50
2018-07-17T08:29:35.530Z,61.10
2018-07-17T08:32:05.299Z,60.70
2018-07-17T08:34:34.763Z,60.10
2018-07-17T08:37:04.051Z,59.60
2018-07-17T08:39:33.322Z,59.20
2018-07-17T08:42:02.492Z,58.40
2018-07-17T08:44:31.867Z,57.80
2018-07-17T08:47:01.151Z,57.60
2018-07-17T08:49:30.427Z,56.70
2018-07-17T08:51:59.727Z,56.50
2018-07-17T08:54:28.988Z,56.40
2018-07-17T08:56:58.255Z,56.00
2018-07-17T08:59:27.495Z,55.70
2018-07-17T09:01:56.820Z,55.40
2018-07-17T09:04:26.060Z,55.20
2018-07-17T09:06:55.316Z,54.90
2018-07-17T09:09:24.635Z,54.70
2018-07-17T09:11:55.475Z,54.30
2018-07-17T09:14:24.688Z,54.00
2018-07-17T09:16:54.380Z,53.70
2018-07-17T09:19:23.687Z,53.50
2018-07-17T09:21:53.143Z,53.00
2018-07-17T09:24:22.368Z,52.20
2018-07-17T09:26:51.598Z,51.50
2018-07-17T09:29:20.872Z,51.00
2018-07-17T09:31:50.391Z,50.80
2018-07-17T09:34:20.588Z,50.90
2018-07-17T09:36:51.018Z,50.50
2018-07-17T09:39:21.549Z,50.20
2018-07-17T09:41:50.870Z,50.30
2018-07-17T09:44:20.390Z,49.90
2018-07-17T09:46:49.580Z,49.70
2018-07-17T09:49:18.881Z,49.10
2018-07-17T09:51:48.157Z,48.60
2018-07-17T09:54:17.483Z,48.40
2018-07-17T09:56:46.835Z,48.30
2018-07-17T09:59:16.042Z,48.60
2018-07-17T10:01:50.559Z,48.00
2018-07-17T10:04:19.764Z,47.20
2018-07-17T10:06:48.996Z,46.70
2018-07-17T10:09:18.195Z,46.70
2018-07-17T10:11:47.395Z,46.70
2018-07-17T10:14:16.578Z,46.50
2018-07-17T10:16:45.858Z,46.70
2018-07-17T10:19:15.050Z,46.90
2018-07-17T10:21:44.472Z,46.70
2018-07-17T10:24:14.444Z,47.00
2018-07-17T10:26:43.783Z,47.20
2018-07-17T10:29:13.576Z,47.00
2018-07-17T10:31:42.907Z,46.60
2018-07-17T10:34:12.169Z,46.20
2018-07-17T10:36:41.515Z,46.10
2018-07-17T10:39:11.548Z,46.40
2018-07-17T10:41:40.926Z,46.90
2018-07-17T10:44:10.482Z,47.30
2018-07-17T10:46:40.129Z,47.40
2018-07-17T10:49:09.455Z,48.10
2018-07-17T10:51:38.851Z,48.60
2018-07-17T10:54:08.279Z,48.60
2018-07-17T10:56:37.837Z,48.20
2018-07-17T10:59:07.186Z,47.00
2018-07-17T11:01:37.047Z,45.50
2018-07-17T11:04:06.517Z,44.50
2018-07-17T11:06:37.534Z,43.60
2018-07-17T11:09:07.329Z,43.00
2018-07-17T11:11:36.567Z,42.40
2018-07-17T11:14:05.864Z,42.50
2018-07-17T11:16:35.112Z,43.20
2018-07-17T11:19:04.394Z,43.30
2018-07-17T11:21:33.550Z,43.60
2018-07-17T11:24:02.895Z,42.80
2018-07-17T11:26:32.015Z,43.00
2018-07-17T11:29:01.180Z,43.20
2018-07-17T11:31:30.363Z,43.10
2018-07-17T11:33:59.612Z,42.90
2018-07-17T11:36:28.828Z,42.80
2018-07-17T11:38:58.068Z,42.60
2018-07-17T11:41:27.269Z,42.40
2018-07-17T11:43:56.808Z,42.60
2018-07-17T11:46:26.731Z,42.70
2018-07-17T11:48:56.100Z,42.10
2018-07-17T11:51:25.340Z,41.30
2018-07-17T11:53:54.575Z,41.20
2018-07-17T11:56:23.805Z,40.80
2018-07-17T12:01:22.004Z,40.30
2018-07-17T12:03:51.469Z,40.30
2018-07-17T12:06:21.166Z,39.90
2018-07-17T12:08:50.571Z,39.30
2018-07-17T12:11:20.061Z,39.40
2018-07-17T12:13:49.487Z,39.70
2018-07-17T12:16:19.041Z,39.30
2018-07-17T12:18:48.742Z,38.80
2018-07-17T12:21:17.966Z,38.00
2018-07-17T12:23:47.286Z,37.80
2018-07-17T12:26:16.568Z,37.50
2018-07-17T12:28:45.785Z,37.70
2018-07-17T12:31:14.957Z,37.20
2018-07-17T12:33:44.214Z,36.90
2018-07-17T12:36:13.354Z,37.50
2018-07-17T12:38:42.562Z,37.10
2018-07-17T12:41:11.808Z,36.20
2018-07-17T12:43:40.965Z,35.50
2018-07-17T12:46:10.160Z,35.10
2018-07-17T12:48:39.757Z,35.20
2018-07-17T12:51:08.975Z,35.00
2018-07-17T12:53:38.304Z,34.40
2018-07-17T12:56:07.783Z,34.40
2018-07-17T12:58:38.794Z,33.90
2018-07-17T13:03:36.915Z,33.10
2018-07-17T13:06:06.123Z,32.90
2018-07-17T13:08:35.389Z,33.50
2018-07-17T13:11:04.829Z,33.40
2018-07-17T13:13:34.032Z,33.00
2018-07-17T13:16:05.245Z,32.90
2018-07-17T13:18:34.795Z,33.00
2018-07-17T13:21:03.988Z,33.20
2018-07-17T13:23:33.237Z,32.40
2018-07-17T13:26:02.459Z,31.80
2018-07-17T13:28:31.564Z,31.90
2018-07-17T13:31:00.839Z,31.80
2018-07-17T13:33:30.022Z,31.20
2018-07-17T13:35:59.339Z,31.20
2018-07-17T13:38:28.541Z,31.00
2018-07-17T13:40:58.753Z,30.90
2018-07-17T13:43:27.964Z,31.20
2018-07-17T13:45:58.920Z,32.40
2018-07-17T13:48:28.404Z,31.70
2018-07-17T13:50:58.775Z,31.20
2018-07-17T13:53:28.679Z,30.80
2018-07-17T13:55:57.986Z,30.50
2018-07-17T13:58:27.137Z,30.50
2018-07-17T14:05:55.347Z,31.10
2018-07-17T14:08:24.559Z,30.50
2018-07-17T14:10:53.932Z,30.30
2018-07-17T14:13:23.100Z,30.50
2018-07-17T14:15:54.394Z,30.10
2018-07-17T14:18:25.055Z,30.00
2018-07-17T14:20:54.311Z,30.10
2018-07-17T14:23:23.508Z,30.40
2018-07-17T14:25:52.773Z,30.60
2018-07-17T14:28:21.929Z,30.70
2018-07-17T14:30:51.211Z,30.70
2018-07-17T14:33:21.647Z,31.00
2018-07-17T14:35:50.946Z,31.30
2018-07-17T14:38:20.086Z,30.90
2018-07-17T14:40:49.373Z,30.40
2018-07-17T14:43:18.592Z,29.80
2018-07-17T14:45:47.779Z,28.90
2018-07-17T14:48:17.008Z,28.90
2018-07-17T14:50:46.359Z,29.60
2018-07-17T14:53:15.644Z,29.70
2018-07-17T14:55:45.059Z,29.70
2018-07-17T14:58:14.410Z,29.50
2018-07-17T15:00:43.767Z,29.40
2018-07-17T15:03:12.991Z,29.50
2018-07-17T15:05:43.611Z,29.70
2018-07-17T15:10:42.018Z,29.40
2018-07-17T15:13:12.557Z,29.30
2018-07-17T15:15:42.651Z,29.30
2018-07-17T15:18:12.420Z,29.40
2018-07-17T15:20:42.101Z,29.40
2018-07-17T15:23:11.807Z,29.20
2018-07-17T15:25:43.391Z,29.00
2018-07-17T15:28:15.947Z,29.10
2018-07-17T15:30:47.472Z,29.10
2018-07-17T15:33:17.321Z,29.40
2018-07-17T15:38:16.103Z,30.50
2018-07-17T15:40:45.340Z,31.40
2018-07-17T15:43:14.622Z,32.20
2018-07-17T15:45:43.910Z,32.40
2018-07-17T15:48:13.225Z,32.70
2018-07-17T15:50:42.528Z,33.60
2018-07-17T15:53:11.944Z,33.70
2018-07-17T15:58:14.539Z,34.50
2018-07-17T16:00:43.787Z,35.00
2018-07-17T16:05:41.883Z,35.30
2018-07-17T16:08:11.070Z,35.40
2018-07-17T16:10:40.396Z,35.90
2018-07-17T16:13:09.755Z,36.20
2018-07-17T16:15:38.993Z,36.30
2018-07-17T16:18:08.397Z,36.60
2018-07-17T16:20:37.558Z,37.20
2018-07-17T16:23:07.045Z,37.60
2018-07-17T16:25:36.255Z,39.00
2018-07-17T16:28:05.538Z,39.00
2018-07-17T16:30:34.777Z,39.60
2018-07-17T16:33:04.087Z,39.80
2018-07-17T16:35:33.296Z,40.40
2018-07-17T16:38:02.574Z,40.80
2018-07-17T16:40:31.748Z,40.60
2018-07-17T16:43:01.374Z,39.80
2018-07-17T16:45:30.580Z,39.70
2018-07-17T16:47:59.821Z,39.70
2018-07-17T16:50:29.019Z,39.70
2018-07-17T16:52:59.558Z,39.70
2018-07-17T16:55:28.658Z,39.80
2018-07-17T16:57:58.314Z,39.70
2018-07-17T17:00:27.489Z,40.40
2018-07-17T17:02:56.763Z,40.60
2018-07-17T17:05:26.777Z,40.30
2018-07-17T17:07:56.187Z,39.10
2018-07-17T17:10:25.719Z,39.30
2018-07-17T17:12:55.000Z,40.10
2018-07-17T17:15:24.250Z,40.00
2018-07-17T17:17:53.452Z,39.70
2018-07-17T17:20:23.498Z,39.30
2018-07-17T17:22:52.743Z,39.30
2018-07-17T17:25:22.210Z,39.10
2018-07-17T17:27:51.513Z,38.80
2018-07-17T17:30:20.651Z,38.60
2018-07-17T17:32:49.847Z,38.50
2018-07-17T17:35:19.092Z,38.30
2018-07-17T17:37:49.269Z,38.50
2018-07-17T17:40:18.436Z,38.70
2018-07-17T17:42:47.711Z,38.90
2018-07-17T17:45:16.896Z,38.90
2018-07-17T17:47:46.147Z,39.50
2018-07-17T17:50:15.426Z,40.00
2018-07-17T17:52:44.926Z,40.10
2018-07-17T17:55:14.239Z,40.10
2018-07-17T17:57:43.771Z,40.30
2018-07-17T18:00:13.407Z,40.00
2018-07-17T18:02:43.072Z,39.80
2018-07-17T18:05:12.790Z,39.90
2018-07-17T18:07:42.185Z,40.20
2018-07-17T18:10:11.526Z,40.30
2018-07-17T18:12:44.970Z,40.40
2018-07-17T18:15:14.683Z,40.60
2018-07-17T18:17:43.993Z,40.80
2018-07-17T18:20:13.588Z,41.10
2018-07-17T18:22:42.976Z,41.80
2018-07-17T18:25:12.387Z,43.30
2018-07-17T18:27:42.089Z,44.10
2018-07-17T18:30:11.412Z,44.30
2018-07-17T18:32:40.743Z,45.00
2018-07-17T18:35:10.252Z,45.20
2018-07-17T18:37:39.612Z,44.30
2018-07-17T18:40:08.791Z,44.40
2018-07-17T18:42:38.052Z,45.20
2018-07-17T18:45:07.283Z,45.30
2018-07-17T18:47:43.898Z,45.80
2018-07-17T18:50:13.520Z,46.40
2018-07-17T18:52:43.727Z,47.20
2018-07-17T18:55:16.423Z,47.50
2018-07-17T18:57:45.723Z,47.60
2018-07-17T19:00:15.209Z,47.70
2018-07-17T19:02:44.600Z,48.10
2018-07-17T19:05:16.751Z,48.00
2018-07-17T19:07:46.458Z,48.70
2018-07-17T19:10:16.307Z,48.90
2018-07-17T19:12:45.628Z,48.70
2018-07-17T19:15:14.951Z,49.00
2018-07-17T19:17:44.487Z,49.10
2018-07-17T19:20:13.828Z,49.50
2018-07-17T19:23:00.995Z,49.20
2018-07-17T19:25:30.558Z,49.50
2018-07-17T19:27:59.836Z,49.80
2018-07-17T19:30:29.091Z,49.70
2018-07-17T19:32:58.393Z,49.90
2018-07-17T19:35:27.644Z,50.30
2018-07-17T19:37:59.869Z,50.50
2018-07-17T19:40:29.084Z,51.50
2018-07-17T19:42:58.359Z,51.30
2018-07-17T19:45:27.655Z,51.60
2018-07-17T19:47:57.059Z,51.90
2018-07-17T19:50:26.379Z,52.20
2018-07-17T19:52:55.663Z,52.60
2018-07-17T19:55:24.873Z,52.80
2018-07-17T19:57:54.248Z,53.10
2018-07-17T20:00:23.566Z,53.20
2018-07-17T20:02:52.822Z,53.40
2018-07-17T20:05:22.112Z,53.70
2018-07-17T20:07:51.379Z,53.90
2018-07-17T20:10:20.756Z,54.20
2018-07-17T20:13:03.095Z,54.10
2018-07-17T20:15:32.557Z,54.10
2018-07-17T20:18:01.828Z,54.40
2018-07-17T20:20:31.054Z,54.70
2018-07-17T20:23:00.534Z,54.90
2018-07-17T20:25:29.835Z,55.60
2018-07-17T20:27:59.043Z,55.60
2018-07-17T20:30:28.856Z,56.30
2018-07-17T20:32:58.154Z,55.50
2018-07-17T20:35:27.444Z,55.70
2018-07-17T20:37:58.247Z,55.50
2018-07-17T20:40:27.493Z,55.40
2018-07-17T20:42:56.835Z,55.60
2018-07-17T20:45:26.479Z,55.60
2018-07-17T20:47:55.684Z,56.20
2018-07-17T20:50:24.879Z,56.00
2018-07-17T20:52:54.102Z,56.00
2018-07-17T20:55:25.435Z,56.00
2018-07-17T20:57:54.606Z,56.20
2018-07-17T21:00:23.883Z,56.20
2018-07-17T21:02:53.397Z,56.10
2018-07-17T21:05:22.661Z,56.80
2018-07-17T21:07:51.928Z,56.90
2018-07-17T21:10:21.192Z,57.10
2018-07-17T21:12:50.425Z,57.10
2018-07-17T21:15:19.745Z,57.30
2018-07-17T21:17:48.957Z,57.30
2018-07-17T21:20:18.156Z,57.50
2018-07-17T21:22:47.575Z,58.20
2018-07-17T21:25:16.973Z,58.00
2018-07-17T21:27:46.253Z,58.00
2018-07-17T21:30:15.609Z,57.80
2018-07-17T21:32:44.888Z,57.80
2018-07-17T21:35:14.254Z,57.80
2018-07-17T21:37:43.589Z,57.40
2018-07-17T21:40:13.087Z,57.10
2018-07-17T21:45:11.235Z,58.40
2018-07-17T21:47:40.546Z,58.20
2018-07-17T21:50:09.790Z,57.80
2018-07-17T21:52:39.001Z,58.10
2018-07-17T21:55:08.256Z,58.50
2018-07-17T21:57:37.366Z,59.00
2018-07-17T22:00:09.016Z,59.10
2018-07-17T22:02:38.234Z,59.30
2018-07-17T22:05:07.539Z,59.30
2018-07-17T22:07:36.719Z,59.50
2018-07-17T22:10:05.999Z,59.50
2018-07-17T22:12:35.187Z,59.70
2018-07-17T22:15:04.508Z,59.70
2018-07-17T22:17:33.721Z,59.40
2018-07-17T22:20:02.891Z,59.40
2018-07-17T22:22:32.140Z,59.40
2018-07-17T22:25:01.361Z,59.50
2018-07-17T22:27:30.657Z,60.00
2018-07-17T22:29:59.906Z,60.10
2018-07-17T22:32:29.398Z,59.90
2018-07-17T22:34:58.642Z,59.80
2018-07-17T22:37:27.913Z,59.90
2018-07-17T22:39:57.212Z,60.20
2018-07-17T22:42:26.557Z,60.40
2018-07-17T22:44:56.275Z,60.60
2018-07-17T22:47:25.693Z,60.60
2018-07-17T22:49:55.043Z,60.50
2018-07-17T22:52:24.369Z,60.50
2018-07-17T22:54:53.728Z,60.70
2018-07-17T22:57:23.062Z,60.90
2018-07-17T22:59:52.456Z,61.10
2018-07-17T23:02:22.332Z,61.10
2018-07-17T23:04:51.527Z,60.40
2018-07-17T23:07:20.799Z,60.00
2018-07-17T23:09:50.031Z,59.40
2018-07-17T23:12:19.288Z,59.00
2018-07-17T23:14:48.509Z,58.40
2018-07-17T23:17:17.734Z,58.00
2018-07-17T23:19:46.981Z,57.70
2018-07-17T23:22:20.423Z,57.40
2018-07-17T23:24:49.616Z,57.20
2018-07-17T23:27:18.952Z,56.90
2018-07-17T23:29:48.166Z,56.80
2018-07-17T23:32:17.440Z,56.70
2018-07-17T23:34:46.669Z,56.50
2018-07-17T23:37:15.923Z,56.20
2018-07-17T23:39:45.100Z,56.20
2018-07-17T23:42:14.358Z,56.20
2018-07-17T23:44:43.627Z,56.20
2018-07-17T23:47:12.883Z,56.20
2018-07-17T23:49:43.970Z,56.30
2018-07-17T23:52:13.177Z,56.20
2018-07-17T23:57:11.226Z,57.70
2018-07-17T23:59:40.662Z,58.00
